Time;durP1;ratioP1;P1;durP2;ratioP2;P2;SDS_P1;SDS_P2;PMS_P1;PMS_P2;Temp;Humidity;BMP_temperature;BMP_pressure;BME280_temperature;BME280_humidity;BME280_pressure;Samples;Min_cycle;Max_cycle;Signal;HPM_P1;HPM_P2
2021/12/07 00:00:45;;;;;;;33.53;18.55;;;2.20;99.90;;;;;;5098622;28;20055;-53
2021/12/07 00:03:11;;;;;;;29.48;17.02;;;2.20;99.90;;;;;;5099452;28;20067;-54
2021/12/07 00:05:38;;;;;;;30.15;17.73;;;2.20;99.90;;;;;;5098773;28;20040;-53
2021/12/07 00:08:04;;;;;;;32.28;18.65;;;2.20;99.90;;;;;;5098833;28;20484;-53
2021/12/07 00:10:30;;;;;;;33.22;18.88;;;2.20;99.90;;;;;;5097303;28;20044;-54
2021/12/07 00:12:56;;;;;;;32.28;17.73;;;2.20;99.90;;;;;;5097229;28;20070;-53
2021/12/07 00:15:24;;;;;;;32.35;17.17;;;2.20;99.90;;;;;;5098998;28;20052;-51
2021/12/07 00:17:50;;;;;;;35.65;19.67;;;2.20;99.90;;;;;;5097291;28;20048;-54
2021/12/07 00:20:18;;;;;;;33.13;19.25;;;2.20;99.90;;;;;;5099205;28;20096;-54
2021/12/07 00:22:49;;;;;;;31.90;18.52;;;2.20;99.90;;;;;;5098300;28;20046;-52
2021/12/07 00:25:15;;;;;;;29.27;17.77;;;2.20;99.90;;;;;;5098861;28;20048;-50
2021/12/07 00:27:41;;;;;;;28.85;17.33;;;2.10;99.90;;;;;;5096831;28;20043;-52
2021/12/07 00:30:09;;;;;;;29.42;16.77;;;2.20;99.90;;;;;;5097276;28;20036;-50
2021/12/07 00:32:40;;;;;;;29.73;18.33;;;2.10;99.90;;;;;;5098663;28;20040;-52
2021/12/07 00:37:40;;;;;;;31.75;17.65;;;2.10;99.90;;;;;;5098650;28;20040;-54
2021/12/07 00:40:08;;;;;;;27.50;16.75;;;2.00;99.90;;;;;;5098222;28;20044;-51
2021/12/07 00:42:34;;;;;;;30.63;18.83;;;2.00;99.90;;;;;;5097934;28;21112;-53
2021/12/07 00:45:00;;;;;;;30.23;18.35;;;1.90;99.90;;;;;;5098156;28;20056;-52
2021/12/07 00:47:26;;;;;;;25.88;16.67;;;1.90;99.90;;;;;;5098263;28;20036;-52
2021/12/07 00:49:51;;;;;;;28.90;17.67;;;2.00;99.90;;;;;;5098276;28;20047;-52
2021/12/07 00:52:17;;;;;;;29.15;17.67;;;1.90;99.90;;;;;;5082863;28;20041;-53
2021/12/07 00:54:43;;;;;;;27.70;16.25;;;1.90;99.90;;;;;;5078073;28;20048;-51
2021/12/07 00:57:09;;;;;;;27.08;16.98;;;1.90;99.90;;;;;;5077866;28;20037;-53
2021/12/07 00:59:34;;;;;;;28.02;17.05;;;1.80;99.90;;;;;;5078214;28;20519;-52
2021/12/07 01:02:01;;;;;;;29.10;17.42;;;1.90;99.90;;;;;;5077596;28;20052;-52
2021/12/07 01:04:28;;;;;;;29.50;15.63;;;1.80;99.90;;;;;;5077694;28;20115;-55
2021/12/07 01:09:30;;;;;;;26.00;15.40;;;1.80;99.90;;;;;;5077739;28;20051;-51
2021/12/07 01:25:44;;;;;;;24.15;15.30;;;1.60;99.90;;;;;;5077651;28;20067;-53
2021/12/07 01:28:23;;;;;;;25.33;15.30;;;1.60;99.90;;;;;;5077562;28;20186;-49
2021/12/07 01:36:18;;;;;;;25.92;16.02;;;1.70;99.90;;;;;;5077012;28;20045;-51
2021/12/07 01:39:37;;;;;;;26.35;16.30;;;1.60;99.90;;;;;;5077342;28;20048;-52
2021/12/07 01:44:24;;;;;;;23.92;15.13;;;1.70;99.90;;;;;;5076478;28;20091;-51
2021/12/07 02:00:16;;;;;;;24.98;14.95;;;1.70;99.90;;;;;;5097506;28;20111;-52
2021/12/07 02:02:42;;;;;;;23.83;13.68;;;1.60;99.90;;;;;;5097492;28;20097;-52
2021/12/07 02:05:09;;;;;;;22.80;14.23;;;1.60;99.90;;;;;;5100337;28;20032;-51
2021/12/07 02:07:35;;;;;;;22.48;13.80;;;1.70;99.90;;;;;;5101475;28;20074;-48
2021/12/07 02:10:07;;;;;;;22.90;14.63;;;1.60;99.90;;;;;;5100555;28;20470;-50
2021/12/07 02:12:43;;;;;;;;;;;1.70;99.90;;;;;;5100078;28;20079;-53
2021/12/07 02:15:11;;;;;;;22.58;14.18;;;1.70;99.90;;;;;;5100696;28;19946;-52
2021/12/07 02:17:37;;;;;;;22.02;13.95;;;1.70;99.90;;;;;;5100611;28;20068;-51
2021/12/07 02:20:04;;;;;;;25.50;15.27;;;1.60;99.90;;;;;;5101155;28;20040;-50
2021/12/07 02:22:30;;;;;;;21.42;13.15;;;1.70;99.90;;;;;;5100255;28;20043;-50
2021/12/07 02:24:55;;;;;;;23.77;14.35;;;1.60;99.90;;;;;;5099723;28;20102;-50
2021/12/07 02:27:21;;;;;;;24.35;15.65;;;1.70;99.90;;;;;;5100414;28;20043;-51
2021/12/07 02:29:47;;;;;;;23.52;14.73;;;1.70;99.90;;;;;;5100739;28;20549;-50
2021/12/07 02:32:12;;;;;;;23.52;14.88;;;1.70;99.90;;;;;;5100448;28;20531;-52
2021/12/07 02:34:43;;;;;;;24.58;15.15;;;1.70;99.90;;;;;;5100382;28;20526;-50
2021/12/07 02:37:09;;;;;;;23.42;14.35;;;1.80;99.90;;;;;;5100894;28;20067;-52
2021/12/07 02:39:37;;;;;;;25.17;14.82;;;1.70;99.90;;;;;;5100070;28;20044;-52
2021/12/07 02:42:04;;;;;;;25.30;15.32;;;1.80;99.90;;;;;;5100677;28;20050;-48
2021/12/07 02:44:31;;;;;;;23.30;14.73;;;1.70;99.90;;;;;;5099437;28;20119;-52
2021/12/07 02:46:57;;;;;;;22.92;14.02;;;1.80;99.90;;;;;;5100279;28;20496;-50
2021/12/07 02:49:23;;;;;;;24.02;14.82;;;1.80;99.90;;;;;;5100247;28;20103;-49
2021/12/07 02:51:48;;;;;;;23.98;15.85;;;1.70;99.90;;;;;;5089093;28;20104;-51
2021/12/07 02:54:14;;;;;;;22.85;13.75;;;1.80;99.90;;;;;;5080259;28;20082;-48
2021/12/07 02:56:40;;;;;;;22.98;14.38;;;1.80;99.90;;;;;;5079474;28;20036;-52
2021/12/07 02:59:06;;;;;;;25.13;13.80;;;1.80;99.90;;;;;;5080126;28;20385;-53
2021/12/07 03:01:37;;;;;;;20.92;12.55;;;1.70;99.90;;;;;;5079262;28;20524;-51
2021/12/07 03:04:10;;;;;;;22.38;13.75;;;1.60;99.90;;;;;;5079816;28;20092;-49
2021/12/07 03:28:14;;;;;;;20.83;11.25;;;1.50;99.90;;;;;;5079239;28;20087;-52
2021/12/07 03:30:40;;;;;;;17.30;10.40;;;1.40;99.90;;;;;;5078986;28;20049;-52
2021/12/07 03:33:06;;;;;;;18.85;11.30;;;1.40;99.90;;;;;;5079323;28;20187;-53
2021/12/07 03:35:32;;;;;;;17.58;10.38;;;1.40;99.90;;;;;;5078622;28;20036;-49
2021/12/07 03:37:58;;;;;;;17.75;10.20;;;1.30;99.90;;;;;;5079070;28;20071;-52
2021/12/07 03:40:24;;;;;;;19.77;11.30;;;1.30;99.90;;;;;;5078142;28;20075;-52
2021/12/07 03:42:50;;;;;;;19.58;11.25;;;1.20;99.90;;;;;;5078576;28;20044;-52
2021/12/07 03:45:16;;;;;;;19.00;11.55;;;1.20;99.90;;;;;;5078787;28;20041;-53
2021/12/07 03:47:42;;;;;;;18.23;10.63;;;1.20;99.90;;;;;;5078571;28;20052;-52
2021/12/07 03:50:11;;;;;;;19.48;11.15;;;1.20;99.90;;;;;;5079053;28;20040;-52
2021/12/07 03:52:37;;;;;;;18.38;10.90;;;1.20;99.90;;;;;;5095691;28;20044;-51
2021/12/07 03:55:04;;;;;;;18.77;10.88;;;1.20;99.90;;;;;;5099169;28;20072;-49
2021/12/07 03:57:30;;;;;;;17.88;10.40;;;1.10;99.90;;;;;;5098571;28;20044;-52
2021/12/07 03:59:56;;;;;;;16.95;9.82;;;1.10;99.90;;;;;;5098903;28;20044;-50
2021/12/07 04:02:23;;;;;;;17.63;9.95;;;1.10;99.90;;;;;;5098579;28;20085;-52
2021/12/07 04:04:58;;;;;;;18.13;10.52;;;1.10;99.90;;;;;;5098630;28;20044;-50
2021/12/07 04:07:23;;;;;;;17.00;10.10;;;1.10;99.90;;;;;;5099109;28;20052;-52
2021/12/07 04:09:49;;;;;;;17.52;10.23;;;1.10;99.90;;;;;;5098440;28;20612;-50
2021/12/07 04:12:15;;;;;;;16.48;9.80;;;1.10;99.90;;;;;;5097387;28;20503;-53
2021/12/07 04:14:40;;;;;;;17.55;9.90;;;1.10;99.90;;;;;;5097922;28;20040;-50
2021/12/07 04:17:06;;;;;;;17.10;10.25;;;1.10;99.90;;;;;;5097101;28;20040;-52
2021/12/07 04:19:32;;;;;;;18.85;10.65;;;1.10;99.90;;;;;;5098770;28;20038;-49
2021/12/07 04:21:58;;;;;;;16.60;10.27;;;1.10;99.90;;;;;;5098271;28;20051;-51
2021/12/07 04:24:27;;;;;;;16.45;9.68;;;1.10;99.90;;;;;;5098970;28;20048;-53
2021/12/07 04:26:54;;;;;;;17.95;9.70;;;1.10;99.90;;;;;;5097422;28;20056;-49
2021/12/07 04:29:21;;;;;;;15.13;9.40;;;1.10;99.90;;;;;;5098575;28;20037;-49
2021/12/07 04:31:47;;;;;;;18.15;10.10;;;1.10;99.90;;;;;;5097916;28;20103;-53
2021/12/07 04:34:12;;;;;;;17.92;9.93;;;1.00;99.90;;;;;;5098286;28;20090;-53
2021/12/07 04:36:38;;;;;;;19.80;10.20;;;1.10;99.90;;;;;;5096760;28;20055;-51
2021/12/07 04:39:04;;;;;;;19.17;9.50;;;1.10;99.90;;;;;;5098129;28;20036;-50
2021/12/07 04:41:33;;;;;;;20.63;10.20;;;1.20;99.90;;;;;;5098501;28;20050;-51
2021/12/07 04:44:00;;;;;;;19.75;10.30;;;1.30;99.90;;;;;;5097649;28;20100;-53
2021/12/07 04:57:45;;;;;;;16.70;9.10;;;1.40;99.90;;;;;;5075735;28;20051;-52
2021/12/07 05:00:16;;;;;;;17.15;9.43;;;1.40;99.90;;;;;;5077746;28;20504;-50
2021/12/07 05:02:45;;;;;;;20.75;9.25;;;1.40;99.90;;;;;;5078043;28;20096;-50
2021/12/07 05:05:14;;;;;;;15.40;8.43;;;1.40;99.90;;;;;;5076257;28;20048;-48
2021/12/07 05:07:47;;;;;;;16.13;8.80;;;1.50;99.90;;;;;;5076435;28;20100;-51
2021/12/07 05:39:55;;;;;;;15.82;8.77;;;1.70;99.90;;;;;;5080178;28;20055;-51
2021/12/07 05:42:23;;;;;;;17.42;8.32;;;1.80;99.90;;;;;;5080024;28;20104;-52
2021/12/07 05:44:51;;;;;;;16.33;9.38;;;1.70;99.90;;;;;;5080373;28;20048;-50
2021/12/07 05:47:17;;;;;;;16.45;9.55;;;1.80;99.90;;;;;;5081068;28;20072;-53
2021/12/07 05:49:43;;;;;;;15.98;8.07;;;1.80;99.90;;;;;;5079683;28;20496;-49
2021/12/07 05:52:09;;;;;;;15.43;7.60;;;1.80;99.90;;;;;;5094849;28;20052;-52
2021/12/07 05:54:34;;;;;;;16.75;8.25;;;1.90;99.90;;;;;;5101424;28;20515;-50
2021/12/07 05:57:00;;;;;;;14.23;6.47;;;1.90;99.90;;;;;;5101037;28;20043;-51
2021/12/07 05:59:26;;;;;;;14.63;7.10;;;2.00;99.90;;;;;;5101258;28;20096;-50
2021/12/07 06:01:52;;;;;;;15.07;6.97;;;2.00;99.90;;;;;;5101007;28;20040;-53
2021/12/07 06:04:17;;;;;;;17.58;7.47;;;2.10;99.90;;;;;;5101021;28;20426;-51
2021/12/07 06:06:43;;;;;;;19.08;7.07;;;2.00;99.90;;;;;;5101148;28;20150;-52
2021/12/07 06:09:09;;;;;;;15.18;7.55;;;2.10;99.90;;;;;;5100795;28;20120;-52
2021/12/07 06:11:35;;;;;;;20.85;9.25;;;2.10;99.90;;;;;;5101591;28;20044;-51
2021/12/07 06:14:00;;;;;;;17.80;7.07;;;2.20;99.90;;;;;;5100193;28;20044;-50
2021/12/07 06:16:30;;;;;;;15.57;6.30;;;2.10;99.90;;;;;;5101022;28;20074;-50
2021/12/07 06:18:56;;;;;;;13.60;6.00;;;2.10;99.90;;;;;;5098711;28;20052;-50
2021/12/07 06:21:22;;;;;;;18.05;6.40;;;2.20;99.90;;;;;;5100661;28;20081;-52
2021/12/07 06:23:48;;;;;;;14.32;5.80;;;2.10;99.90;;;;;;5100801;28;20036;-52
2021/12/07 06:26:13;;;;;;;15.43;5.63;;;2.20;99.90;;;;;;5100739;28;20067;-51
2021/12/07 06:28:39;;;;;;;14.27;5.80;;;2.20;99.90;;;;;;5100870;28;20032;-50
2021/12/07 06:31:05;;;;;;;16.95;8.57;;;2.20;99.90;;;;;;5100218;28;20097;-50
2021/12/07 06:33:31;;;;;;;13.70;6.05;;;2.30;99.90;;;;;;5100624;28;20047;-52
2021/12/07 06:36:00;;;;;;;20.75;7.72;;;2.20;99.90;;;;;;5099855;28;20587;-52
2021/12/07 06:38:31;;;;;;;12.95;5.93;;;2.20;99.90;;;;;;5100347;28;20051;-51
2021/12/07 06:40:58;;;;;;;14.23;6.30;;;2.20;99.90;;;;;;5100617;28;20044;-52
2021/12/07 06:43:24;;;;;;;14.82;6.35;;;1.80;99.90;;;;;;5099803;28;20064;-52
2021/12/07 06:45:51;;;;;;;15.48;6.75;;;2.10;99.90;;;;;;5100728;28;20044;-52
2021/12/07 06:48:16;;;;;;;17.88;6.78;;;2.10;99.90;;;;;;5099709;28;20602;-53
2021/12/07 06:50:42;;;;;;;17.50;6.43;;;2.00;99.90;;;;;;5098294;28;20048;-52
2021/12/07 06:53:09;;;;;;;17.30;7.28;;;1.90;99.90;;;;;;5079318;28;20111;-49
2021/12/07 06:55:34;;;;;;;14.95;6.55;;;1.90;99.90;;;;;;5079966;28;20070;-52
2021/12/07 06:58:01;;;;;;;13.00;6.95;;;1.90;99.90;;;;;;5080050;28;20100;-50
2021/12/07 07:00:26;;;;;;;16.40;7.75;;;1.80;99.90;;;;;;5079384;28;20041;-54
2021/12/07 07:02:52;;;;;;;18.20;7.25;;;1.80;99.90;;;;;;5080041;28;20037;-48
2021/12/07 07:05:18;;;;;;;18.13;7.88;;;1.80;99.90;;;;;;5077962;28;20059;-52
2021/12/07 07:07:45;;;;;;;17.67;7.97;;;1.80;99.90;;;;;;5079686;28;20068;-51
2021/12/07 07:10:16;;;;;;;22.10;7.68;;;1.70;99.90;;;;;;5079029;28;20037;-52
2021/12/07 07:12:42;;;;;;;18.08;6.35;;;1.60;99.90;;;;;;5079358;28;20052;-50
2021/12/07 07:15:09;;;;;;;13.55;6.43;;;1.70;99.90;;;;;;5079381;28;20110;-48
2021/12/07 07:17:35;;;;;;;15.25;6.68;;;1.70;99.90;;;;;;5079247;28;20443;-52
2021/12/07 07:20:02;;;;;;;16.52;6.82;;;1.70;99.90;;;;;;5079897;28;20452;-51
2021/12/07 07:22:28;;;;;;;14.75;6.22;;;1.70;99.90;;;;;;5077877;28;20037;-52
2021/12/07 07:24:54;;;;;;;19.02;6.95;;;1.80;99.90;;;;;;5079758;28;20067;-52
2021/12/07 07:27:19;;;;;;;15.73;6.40;;;1.70;99.90;;;;;;5079044;28;20566;-52
2021/12/07 07:29:46;;;;;;;12.82;5.88;;;1.60;99.90;;;;;;5079352;28;20048;-50
2021/12/07 07:32:11;;;;;;;17.88;6.50;;;1.70;99.90;;;;;;5079495;28;20044;-51
2021/12/07 07:34:38;;;;;;;15.13;6.07;;;1.60;99.90;;;;;;5079001;28;20127;-49
2021/12/07 07:37:03;;;;;;;11.98;5.45;;;1.60;99.90;;;;;;5079919;28;20121;-50
2021/12/07 07:39:29;;;;;;;15.93;5.68;;;1.60;99.90;;;;;;5078404;28;20131;-52
2021/12/07 07:41:55;;;;;;;13.23;5.75;;;1.60;99.90;;;;;;5079558;28;20059;-54
2021/12/07 07:44:21;;;;;;;11.80;5.35;;;1.60;99.90;;;;;;5078004;28;20048;-50
2021/12/07 07:46:47;;;;;;;14.13;6.20;;;1.60;99.90;;;;;;5079004;28;20092;-53
2021/12/07 07:49:12;;;;;;;14.93;6.53;;;1.50;99.90;;;;;;5078712;28;20128;-51
2021/12/07 07:51:39;;;;;;;14.60;5.85;;;1.50;99.90;;;;;;5070321;28;20044;-48
2021/12/07 07:54:05;;;;;;;14.38;6.35;;;1.50;99.90;;;;;;5099658;28;20118;-51
2021/12/07 07:56:31;;;;;;;18.88;6.32;;;1.50;99.90;;;;;;5098932;28;20036;-50
2021/12/07 07:58:59;;;;;;;13.85;6.50;;;1.40;99.90;;;;;;5099021;28;20071;-52
2021/12/07 08:01:29;;;;;;;18.85;10.23;;;1.50;99.90;;;;;;5097676;28;20088;-51
2021/12/07 08:03:55;;;;;;;13.10;6.18;;;1.50;99.90;;;;;;5099191;28;20062;-54
2021/12/07 08:06:21;;;;;;;16.00;6.35;;;1.50;99.90;;;;;;5098956;28;20051;-51
2021/12/07 08:08:47;;;;;;;17.75;6.45;;;1.50;99.90;;;;;;5097550;28;20043;-51
2021/12/07 08:11:13;;;;;;;22.33;6.70;;;1.50;99.90;;;;;;5099112;28;20042;-50
2021/12/07 08:13:40;;;;;;;14.25;5.70;;;1.50;99.90;;;;;;5098257;28;20491;-49
2021/12/07 08:16:15;;;;;;;14.95;6.25;;;1.50;99.90;;;;;;5098072;28;20044;-50
2021/12/07 08:18:48;;;;;;;18.40;7.32;;;1.50;99.90;;;;;;5098293;28;20044;-52
2021/12/07 08:21:16;;;;;;;13.32;6.22;;;1.50;99.90;;;;;;5098798;28;20044;-50
2021/12/07 08:23:42;;;;;;;13.73;6.00;;;1.50;99.90;;;;;;5098991;28;20040;-49
2021/12/07 08:26:11;;;;;;;16.50;6.10;;;1.60;99.90;;;;;;5098677;28;20051;-51
2021/12/07 08:28:37;;;;;;;15.55;6.25;;;1.60;99.90;;;;;;5099230;28;20031;-52
2021/12/07 08:31:04;;;;;;;17.55;6.65;;;1.60;99.90;;;;;;5098463;28;20093;-54
2021/12/07 08:33:31;;;;;;;18.48;6.60;;;1.70;99.90;;;;;;5098882;28;20055;-54
2021/12/07 08:35:57;;;;;;;14.82;6.10;;;1.70;99.90;;;;;;5098037;28;20574;-53
2021/12/07 08:38:23;;;;;;;16.98;6.30;;;1.70;99.90;;;;;;5098631;28;20040;-51
2021/12/07 08:40:53;;;;;;;17.52;7.18;;;1.70;99.90;;;;;;5098634;28;20036;-53
2021/12/07 08:43:32;;;;;;;15.68;6.18;;;1.70;99.90;;;;;;5096564;28;20082;-53
2021/12/07 08:46:00;;;;;;;16.25;6.13;;;1.90;99.90;;;;;;5098641;28;20044;-52
2021/12/07 08:48:26;;;;;;;21.05;6.55;;;1.80;99.90;;;;;;5097857;28;20047;-50
2021/12/07 08:50:54;;;;;;;19.08;6.93;;;1.80;99.90;;;;;;5095216;28;20044;-49
2021/12/07 08:53:22;;;;;;;17.38;7.25;;;1.90;99.90;;;;;;5077980;28;20044;-49
2021/12/07 09:01:23;;;;;;;15.35;5.97;;;2.00;99.90;;;;;;5077534;28;20051;-51
2021/12/07 09:03:50;;;;;;;16.25;5.60;;;2.10;99.90;;;;;;5078283;28;20047;-52
2021/12/07 09:06:17;;;;;;;16.02;6.10;;;2.10;99.90;;;;;;5077747;28;20047;-53
2021/12/07 09:08:43;;;;;;;16.02;6.65;;;2.20;99.90;;;;;;5078135;28;20051;-51
2021/12/07 09:11:10;;;;;;;12.90;6.68;;;2.30;99.90;;;;;;5078584;28;20051;-54
2021/12/07 09:13:37;;;;;;;15.88;6.85;;;2.30;99.90;;;;;;5080285;28;20045;-52
2021/12/07 09:16:03;;;;;;;17.20;5.97;;;2.30;99.90;;;;;;5082334;28;20037;-52
2021/12/07 09:18:30;;;;;;;14.95;5.45;;;2.30;99.90;;;;;;5081695;28;20048;-50
2021/12/07 09:20:56;;;;;;;15.40;6.40;;;2.40;99.90;;;;;;5082053;28;20064;-53
2021/12/07 09:23:23;;;;;;;14.00;5.40;;;2.40;99.90;;;;;;5081740;28;20044;-54
2021/12/07 09:25:49;;;;;;;15.30;5.05;;;2.50;99.90;;;;;;5081863;28;20411;-53
2021/12/07 09:28:15;;;;;;;15.95;5.60;;;2.50;99.90;;;;;;5082158;28;20104;-53
2021/12/07 09:30:41;;;;;;;18.38;5.80;;;2.50;99.90;;;;;;5081546;28;20033;-52
2021/12/07 09:33:07;;;;;;;15.55;5.20;;;2.60;99.90;;;;;;5081851;28;20491;-50
2021/12/07 09:35:34;;;;;;;20.50;5.25;;;2.70;99.90;;;;;;5081385;28;20041;-51
2021/12/07 09:38:00;;;;;;;23.67;7.22;;;2.90;99.90;;;;;;5081687;28;20508;-54
2021/12/07 09:40:28;;;;;;;15.20;4.93;;;2.90;99.90;;;;;;5081507;28;20047;-54
2021/12/07 09:42:56;;;;;;;16.08;6.20;;;3.20;99.90;;;;;;5081034;28;20051;-51
2021/12/07 09:45:25;;;;;;;21.83;6.93;;;3.20;99.90;;;;;;5081697;28;20055;-52
2021/12/07 09:47:52;;;;;;;17.17;5.05;;;3.30;99.90;;;;;;5081215;28;20041;-52
2021/12/07 09:50:20;;;;;;;17.85;5.30;;;3.40;99.90;;;;;;5081615;28;20079;-53
2021/12/07 09:52:47;;;;;;;16.63;5.38;;;3.50;99.90;;;;;;5099905;28;20051;-53
2021/12/07 09:55:14;;;;;;;13.38;4.35;;;3.50;99.90;;;;;;5101738;28;20054;-53
2021/12/07 09:57:40;;;;;;;15.93;5.45;;;3.50;99.90;;;;;;5101086;28;20107;-51
2021/12/07 10:00:08;;;;;;;14.07;4.60;;;3.50;99.90;;;;;;5101614;28;20512;-54
2021/12/07 10:02:34;;;;;;;12.10;5.05;;;3.50;99.90;;;;;;5102016;28;20044;-52
2021/12/07 10:05:00;;;;;;;16.25;4.93;;;3.50;99.90;;;;;;5101296;28;20108;-52
2021/12/07 10:07:26;;;;;;;12.63;4.82;;;3.60;99.90;;;;;;5101704;28;20109;-54
2021/12/07 10:09:52;;;;;;;14.90;4.90;;;3.50;99.90;;;;;;5101083;28;20132;-54
2021/12/07 10:12:20;;;;;;;12.52;4.65;;;3.50;99.90;;;;;;5101429;28;20036;-53
2021/12/07 10:14:46;;;;;;;12.00;4.85;;;3.50;99.90;;;;;;5100805;28;20040;-50
2021/12/07 10:17:12;;;;;;;14.82;5.20;;;3.50;99.90;;;;;;5101254;28;20093;-53
2021/12/07 10:19:43;;;;;;;16.92;5.57;;;3.50;99.90;;;;;;5101633;28;20048;-53
2021/12/07 10:22:18;;;;;;;16.02;5.82;;;3.50;99.90;;;;;;5100854;28;20100;-53
2021/12/07 10:24:50;;;;;;;13.15;5.03;;;3.40;99.90;;;;;;5100219;28;20036;-54
2021/12/07 10:27:38;;;;;;;17.23;5.68;;;3.50;99.90;;;;;;5100484;28;20427;-55
2021/12/07 10:30:07;;;;;;;15.50;5.38;;;3.50;99.90;;;;;;5101044;28;20048;-54
2021/12/07 10:32:37;;;;;;;20.02;5.57;;;3.60;99.90;;;;;;5101254;28;20518;-52
2021/12/07 10:35:03;;;;;;;19.40;5.10;;;3.70;99.90;;;;;;5099032;28;20056;-52
2021/12/07 10:37:30;;;;;;;14.07;5.85;;;3.80;99.90;;;;;;5100964;28;20040;-52
2021/12/07 10:39:56;;;;;;;16.83;5.15;;;3.80;99.90;;;;;;5100531;28;20047;-48
2021/12/07 10:42:25;;;;;;;24.27;5.63;;;3.90;99.90;;;;;;5100875;28;20624;-52
2021/12/07 10:44:51;;;;;;;12.82;5.35;;;4.00;99.90;;;;;;5100545;28;20060;-52
2021/12/07 10:47:20;;;;;;;14.68;5.03;;;4.00;99.90;;;;;;5100570;28;20048;-54
2021/12/07 10:49:51;;;;;;;14.63;5.18;;;4.10;99.90;;;;;;5100609;28;20070;-50
2021/12/07 10:52:42;;;;;;;14.40;4.80;;;4.10;99.90;;;;;;5083834;28;20087;-52
2021/12/07 10:55:13;;;;;;;19.05;5.50;;;4.10;99.90;;;;;;5080296;28;20062;-54
2021/12/07 10:57:51;;;;;;;17.42;6.03;;;4.20;99.90;;;;;;5080003;28;20107;-50
2021/12/07 11:00:44;;;;;;;13.95;4.90;;;4.20;99.90;;;;;;5080006;28;20129;-53
2021/12/07 11:03:22;;;;;;;15.90;5.18;;;4.30;99.90;;;;;;5080481;28;20049;-53
2021/12/07 11:05:53;;;;;;;16.55;4.90;;;4.50;99.90;;;;;;5079514;28;20052;-54
2021/12/07 11:08:22;;;;;;;13.35;4.63;;;4.40;99.90;;;;;;5080069;28;20070;-53
2021/12/07 11:10:50;;;;;;;14.20;5.10;;;4.50;99.90;;;;;;5080257;28;20095;-53
2021/12/07 11:13:25;;;;;;;11.70;4.95;;;4.50;99.90;;;;;;5079498;28;20040;-51
2021/12/07 11:15:54;;;;;;;15.57;5.03;;;4.60;99.90;;;;;;5078876;28;20037;-52
2021/12/07 11:18:35;;;;;;;12.32;4.55;;;4.60;99.90;;;;;;5078079;28;20044;-51
2021/12/07 11:21:07;;;;;;;13.13;4.85;;;4.60;99.90;;;;;;5079690;28;20041;-52
2021/12/07 11:23:38;;;;;;;14.98;4.93;;;4.60;99.90;;;;;;5079819;28;20156;-55
2021/12/07 11:31:35;;;;;;;16.20;6.18;;;4.70;99.90;;;;;;5078751;28;20055;-52
2021/12/07 11:34:22;;;;;;;13.52;6.30;;;4.80;99.90;;;;;;5079437;28;20074;-53
2021/12/07 11:36:48;;;;;;;17.17;5.97;;;4.80;99.90;;;;;;5078224;28;20047;-53
2021/12/07 11:39:38;;;;;;;16.80;5.65;;;4.90;99.90;;;;;;5079193;28;20048;-51
2021/12/07 11:42:08;;;;;;;12.43;5.65;;;4.90;99.90;;;;;;5079530;28;20051;-53
2021/12/07 11:44:56;;;;;;;23.85;6.60;;;4.90;99.90;;;;;;5078689;28;20044;-54
2021/12/07 11:47:28;;;;;;;13.63;4.55;;;5.00;99.90;;;;;;5078630;28;20045;-51
2021/12/07 11:49:55;;;;;;;15.48;6.38;;;5.00;99.90;;;;;;5080011;28;20466;-55
2021/12/07 11:52:21;;;;;;;12.27;4.57;;;5.00;99.90;;;;;;5094447;28;20046;-54
2021/12/07 11:54:48;;;;;;;19.02;6.35;;;5.00;99.90;;;;;;5099624;28;20099;-53
2021/12/07 11:57:17;;;;;;;14.75;4.78;;;5.00;99.90;;;;;;5099061;28;20468;-53
2021/12/07 11:59:45;;;;;;;12.68;4.22;;;5.00;99.90;;;;;;5099422;28;20040;-53
2021/12/07 12:02:11;;;;;;;18.23;4.43;;;5.00;99.90;;;;;;5099506;28;20058;-49
2021/12/07 12:04:36;;;;;;;11.50;5.10;;;5.10;99.90;;;;;;5099074;28;20036;-52
2021/12/07 12:07:03;;;;;;;13.25;4.38;;;5.10;99.90;;;;;;5099673;28;20036;-52
2021/12/07 12:09:30;;;;;;;17.52;4.80;;;5.10;99.90;;;;;;5098917;28;20070;-54
2021/12/07 12:12:14;;;;;;;18.95;4.35;;;5.20;99.90;;;;;;5099414;28;20040;-50
2021/12/07 12:15:04;;;;;;;13.50;4.90;;;5.20;99.90;;;;;;5098359;28;20514;-51
2021/12/07 12:17:32;;;;;;;17.52;4.70;;;5.20;99.90;;;;;;5098994;28;20094;-52
2021/12/07 12:20:24;;;;;;;15.73;4.57;;;5.20;99.90;;;;;;5099362;28;20093;-54
2021/12/07 12:22:56;;;;;;;13.95;3.60;;;5.30;99.90;;;;;;5098677;28;20036;-54
2021/12/07 12:25:25;;;;;;;16.23;3.85;;;5.30;99.90;;;;;;5098974;28;20036;-53
2021/12/07 12:27:54;;;;;;;14.02;4.22;;;5.30;99.90;;;;;;5099019;28;20040;-51
2021/12/07 12:30:25;;;;;;;15.77;5.82;;;5.30;99.90;;;;;;5098654;28;20046;-52
2021/12/07 12:33:01;;;;;;;17.93;3.70;;;5.30;99.90;;;;;;5099264;28;20072;-52
2021/12/07 12:35:50;;;;;;;11.15;3.30;;;5.30;99.90;;;;;;5098311;28;20531;-54
2021/12/07 12:38:30;;;;;;;14.38;3.75;;;5.30;99.90;;;;;;5098765;28;20569;-53
2021/12/07 12:41:16;;;;;;;13.40;3.60;;;5.30;99.90;;;;;;5099183;28;20096;-51
2021/12/07 12:43:55;;;;;;;14.23;3.70;;;5.30;99.90;;;;;;5096433;28;20056;-52
2021/12/07 12:46:27;;;;;;;15.27;3.85;;;5.20;99.90;;;;;;5098875;28;20070;-53
2021/12/07 12:48:57;;;;;;;;;;;5.30;99.90;;;;;;5098339;28;20054;-54
2021/12/07 12:51:28;;;;;;;13.77;4.32;;;5.20;99.90;;;;;;5091222;28;19932;-51
2021/12/07 12:53:54;;;;;;;14.48;3.90;;;5.30;99.90;;;;;;5078473;28;20071;-53
2021/12/07 12:56:23;;;;;;;14.10;3.95;;;5.30;99.90;;;;;;5078057;28;20068;-54
2021/12/07 12:59:00;;;;;;;11.85;3.95;;;5.20;99.90;;;;;;5078310;28;20036;-53
2021/12/07 13:01:28;;;;;;;12.20;4.18;;;5.20;99.90;;;;;;5077861;28;20072;-54
2021/12/07 13:03:57;;;;;;;17.67;3.90;;;5.20;99.90;;;;;;5078398;28;20041;-54
2021/12/07 13:06:39;;;;;;;12.30;3.88;;;5.20;99.90;;;;;;5078325;28;20048;-53
2021/12/07 13:09:09;;;;;;;17.65;4.38;;;5.10;99.90;;;;;;5077759;28;20045;-53
2021/12/07 13:11:43;;;;;;;15.52;4.68;;;5.20;99.90;;;;;;5078630;28;20051;-55
2021/12/07 13:14:27;;;;;;;9.15;4.00;;;5.10;99.90;;;;;;5077394;28;20040;-53
2021/12/07 13:17:15;;;;;;;14.88;5.13;;;5.20;99.90;;;;;;5078300;28;20105;-53
2021/12/07 13:20:05;;;;;;;14.63;4.55;;;5.10;99.90;;;;;;5078235;28;20071;-52
2021/12/07 13:22:45;;;;;;;10.13;3.75;;;5.10;99.90;;;;;;5077957;28;20044;-54
2021/12/07 13:25:16;;;;;;;19.63;5.25;;;5.20;99.90;;;;;;5076940;28;20040;-54
2021/12/07 13:28:04;;;;;;;14.40;4.70;;;5.20;99.90;;;;;;5078087;28;20049;-55
2021/12/07 13:30:50;;;;;;;15.50;4.45;;;5.20;99.90;;;;;;5077766;28;20048;-53
2021/12/07 13:33:35;;;;;;;14.85;4.32;;;5.20;99.90;;;;;;5078385;28;20132;-50
2021/12/07 13:36:27;;;;;;;14.38;4.85;;;5.20;99.90;;;;;;5077917;28;20451;-54
2021/12/07 13:38:53;;;;;;;15.02;4.57;;;5.10;99.90;;;;;;5076165;28;20037;-49
2021/12/07 13:41:20;;;;;;;18.00;5.47;;;5.10;99.90;;;;;;5078170;28;20378;-52
2021/12/07 13:43:49;;;;;;;17.63;5.80;;;5.20;99.90;;;;;;5077029;28;20072;-49
2021/12/07 13:46:17;;;;;;;14.80;4.85;;;5.20;99.90;;;;;;5077943;28;20055;-53
2021/12/07 13:48:45;;;;;;;18.98;5.32;;;5.20;99.90;;;;;;5077313;28;20051;-53
2021/12/07 13:51:12;;;;;;;18.80;5.20;;;5.30;99.90;;;;;;5083508;28;20047;-50
2021/12/07 13:53:40;;;;;;;17.38;5.28;;;5.10;99.90;;;;;;5098090;28;20036;-53
2021/12/07 13:56:06;;;;;;;15.48;5.00;;;5.10;99.90;;;;;;5097601;28;20067;-51
2021/12/07 13:59:11;;;;;;;14.07;4.72;;;5.00;99.90;;;;;;5098369;28;20109;-52
2021/12/07 14:01:40;;;;;;;15.75;5.18;;;5.00;99.90;;;;;;5005110;28;20053;-51
2021/12/07 14:04:07;;;;;;;17.15;5.68;;;5.00;99.90;;;;;;5091498;28;20055;-52
2021/12/07 14:06:34;;;;;;;13.38;4.82;;;4.90;99.90;;;;;;5101656;28;20048;-49
2021/12/07 14:09:09;;;;;;;21.27;5.97;;;4.90;99.90;;;;;;5101456;28;20123;-51
2021/12/07 14:11:37;;;;;;;11.85;4.35;;;4.80;99.90;;;;;;5101559;28;20040;-52
2021/12/07 14:14:11;;;;;;;20.38;4.82;;;4.80;99.90;;;;;;5100971;28;20100;-49
2021/12/07 14:16:38;;;;;;;17.98;4.55;;;4.70;99.90;;;;;;5101601;28;20110;-54
2021/12/07 14:19:04;;;;;;;14.82;3.78;;;4.70;99.90;;;;;;5101430;28;20066;-50
2021/12/07 14:21:30;;;;;;;19.33;4.78;;;4.60;99.90;;;;;;5099701;28;20044;-53
2021/12/07 14:24:05;;;;;;;19.30;5.85;;;4.60;99.90;;;;;;5101745;28;20039;-50
2021/12/07 14:26:36;;;;;;;17.85;4.85;;;4.60;99.90;;;;;;5100764;28;20036;-50
2021/12/07 14:29:08;;;;;;;15.60;4.72;;;4.50;99.90;;;;;;5101491;28;20127;-52
2021/12/07 14:31:41;;;;;;;13.52;4.38;;;4.50;99.90;;;;;;5100665;28;20048;-52
2021/12/07 14:34:13;;;;;;;13.13;4.60;;;4.40;99.90;;;;;;5101045;28;20052;-53
2021/12/07 14:36:41;;;;;;;;;;;4.40;99.90;;;;;;5101657;28;20044;-52
2021/12/07 14:39:14;;;;;;;13.57;4.80;;;4.40;99.90;;;;;;5100846;28;19920;-52
2021/12/07 14:41:49;;;;;;;17.05;4.10;;;4.30;99.90;;;;;;5101356;28;20404;-53
2021/12/07 14:44:22;;;;;;;18.50;6.45;;;4.30;99.90;;;;;;5100055;28;20131;-53
2021/12/07 14:46:49;;;;;;;17.10;4.95;;;4.20;99.90;;;;;;5100904;28;20055;-53
2021/12/07 14:49:16;;;;;;;15.60;5.78;;;4.20;99.90;;;;;;5100855;28;20099;-52